• Join FlightAware (Why Join?)
  • Login
  • US Flag 
12:45AM EDT


 

Airport Tracker/Info


-or-


 

Live Flight TrackerFlight Track Log ✈ CHH7007 ✈ 03-Jul-2013 ✈ ZJHK / HAK - ZGGG / CAN

Flight Track Log - Related Links

Times and Time Zones

All times are in EDT time to prevent confusion due to time zone crossing. See the CHH7007 flight status page for this flight to view local times or setup timezone preferences in your user account.

Time Position Orientation Groundspeed Altitude Reporting Facility
EDT Latitude Longitude Course Direction KTS MPH feet Rate Location/Type
01:31AM 22.4820 111.5420 55° Northeast 355 409 23,100  Level FlightAware
01:32AM 22.5200 111.6030 56° Northeast 354 407 22,800 -1,020 Descending FlightAware
01:33AM 22.5930 111.7200 56° Northeast 351 404 21,100 -1,260 Descending FlightAware
01:34AM 22.6250 111.7710 56° Northeast 350 403 20,500 -600 Descending FlightAware
01:34AM 22.6540 111.8160 55° Northeast 348 400 20,400 -120 Descending FlightAware
01:35AM 22.6910 111.8720 54° Northeast 348 400 20,400  Level FlightAware
01:36AM 22.7190 111.9160 55° Northeast 348 400 20,400  Level FlightAware
01:36AM 22.7580 111.9770 55° Northeast 348 400 20,400  Level FlightAware
01:37AM 22.7850 112.0180 54° Northeast 348 400 20,400 -2,460 Level FlightAware
01:38AM 22.8750 112.1720 58° Northeast 341 392 15,900 -2,700 Descending FlightAware
01:39AM 22.9070 112.2230 56° Northeast 339 390 15,300 -1,080 Descending FlightAware
01:40AM 22.9420 112.2790 56° Northeast 337 388 14,600 -1,020 Descending FlightAware
01:40AM 22.9790 112.3400 57° Northeast 334 384 13,900 -1,080 Descending FlightAware
01:41AM 23.0130 112.3950 56° Northeast 333 383 13,200 -900 Descending FlightAware
01:42AM 23.0420 112.4440 57° Northeast 330 380 12,800 -660 Descending FlightAware
01:42AM 23.0670 112.5060 66° East 325 374 12,400 -780 Descending FlightAware
01:43AM 23.0910 112.5590 64° Northeast 328 377 11,800 -1,020 Descending FlightAware
01:44AM 23.1240 112.6270 62° Northeast 322 371 11,000 -600 Descending FlightAware
01:44AM 23.1480 112.6760 62° Northeast 322 371 11,000 -180 Level FlightAware
01:45AM 23.2160 112.7180 30° Northeast 322 371 10,800 -180 Descending FlightAware
01:46AM 23.2280 112.7700 76° East 320 368 10,800  Level FlightAware
01:46AM 23.2520 112.8300 66° East 319 367 10,800  Level FlightAware
01:47AM 23.2780 112.8930 66° East 319 367 10,800 -120 Level FlightAware
01:48AM 23.3050 112.9570 65° Northeast 318 366 10,700 -540 Descending FlightAware
01:48AM 23.3290 113.0150 66° East 316 364 10,100 -1,020 Descending FlightAware
01:49AM 23.3380 113.0370 66° East 314 361 9,800 -1,020 Descending FlightAware
01:49AM 23.3550 113.0750 64° Northeast 312 359 9,400 -1,020 Descending FlightAware
01:49AM 23.3760 113.1120 58° Northeast 315 362 8,900 -1,140 Descending FlightAware
01:50AM 23.4050 113.1370 38° Northeast 308 354 8,400 -1,080 Descending FlightAware
01:50AM 23.4340 113.1550 30° Northeast 301 346 8,000 -480 Descending FlightAware
01:51AM 23.4680 113.1720 25° Northeast 281 323 8,000 120 Level FlightAware
01:51AM 23.4870 113.1810 23° Northeast 269 310 8,100  Climbing FlightAware
01:52AM 23.5180 113.1950 22° Northeast 246 283 8,000 -180 Descending FlightAware
01:52AM 23.5260 113.1980 19° North 242 278 8,000 -480 Level FlightAware
01:52AM 23.5440 113.2050 20° North 239 275 7,800 -1,080 Descending FlightAware
01:52AM 23.5680 113.2140 19° North 235 270 7,300 -1,200 Descending FlightAware
01:53AM 23.5970 113.2260 21° North 233 268 6,800 -1,140 Descending FlightAware
01:53AM 23.6240 113.2330 13° North 230 265 6,300 -1,200 Descending FlightAware
01:54AM 23.6500 113.2400 14° North 226 260 5,800 -1,200 Descending FlightAware
01:54AM 23.6610 113.2530 47° Northeast 216 249 5,500 -960 Descending FlightAware
01:54AM 23.6630 113.2630 78° East 208 239 5,400 -780 Descending FlightAware
01:54AM 23.6590 113.2850 101° East 201 231 5,100 -840 Descending FlightAware
01:55AM 23.6530 113.3130 103° East 198 228 4,700 -900 Descending FlightAware
01:55AM 23.6410 113.3360 120° Southeast 191 220 4,300 -900 Descending FlightAware
01:56AM 23.6310 113.3390 165° South 192 221 4,100 -780 Descending FlightAware
01:56AM 23.6060 113.3440 170° South 188 216 3,800 -780 Descending FlightAware
01:57AM 23.5830 113.3390 191° South 184 212 3,400 -840 Descending FlightAware
01:57AM 23.5620 113.3340 192° South 180 207 3,100 -900 Descending FlightAware
01:57AM 23.5450 113.3290 195° South 169 194 2,700 -900 Descending FlightAware
01:58AM 23.5310 113.3250 195° South 159 183 2,500 -360 Descending FlightAware
01:58AM 23.5110 113.3200 193° South 153 176 2,400 -240 Descending FlightAware
02:01AM 23.3924 113.2988 189° South  Level Estimated
02:02AM 23.3924 113.2988 223° Southwest  Level Estimated
02:03AM 23.3924 113.2988 223° Southwest  Level Estimated
02:04AM 23.3924 113.2988 223° Southwest  Level Estimated
02:05AM 23.3924 113.2988 223° Southwest  Level Estimated
02:06AM 23.3924 113.2988 223° Southwest  Level Estimated
02:07AM 23.3924 113.2988 223° Southwest  Level Estimated
02:08AM 23.3924 113.2988 223° Southwest  Level Estimated
02:09AM 23.3924 113.2988 223° Southwest  Level Estimated
02:10AM 23.3924 113.2988 223° Southwest  Level Estimated
02:11AM 23.3924 113.2988 223° Southwest  Level Estimated